createdAt,value
2018-12-26T00:00:04.955Z,3.20
2018-12-26T00:01:07.731Z,3.20
2018-12-26T00:02:07.351Z,3.20
2018-12-26T00:03:07.843Z,3.20
2018-12-26T00:04:04.808Z,3.20
2018-12-26T00:05:04.974Z,3.20
2018-12-26T00:06:07.710Z,3.20
2018-12-26T00:07:05.618Z,3.20
2018-12-26T00:08:04.655Z,3.20
2018-12-26T00:09:07.379Z,3.20
2018-12-26T00:10:05.355Z,3.20
2018-12-26T00:11:04.862Z,3.20
2018-12-26T00:12:07.527Z,3.20
2018-12-26T00:13:08.024Z,3.20
2018-12-26T00:14:05.030Z,3.20
2018-12-26T00:15:07.877Z,3.20
2018-12-26T00:16:04.885Z,3.20
2018-12-26T00:17:07.713Z,3.20
2018-12-26T00:18:09.841Z,3.20
2018-12-26T00:19:05.007Z,3.20
2018-12-26T00:20:12.759Z,3.20
2018-12-26T00:21:05.636Z,3.20
2018-12-26T00:22:04.737Z,3.20
2018-12-26T00:23:05.007Z,3.20
2018-12-26T00:24:05.367Z,3.20
2018-12-26T00:25:05.704Z,3.20
2018-12-26T00:26:05.131Z,3.20
2018-12-26T00:27:05.216Z,3.20
2018-12-26T00:28:08.160Z,3.20
2018-12-26T00:29:05.129Z,3.20
2018-12-26T00:30:05.139Z,3.20
2018-12-26T00:31:07.897Z,3.10
2018-12-26T00:32:04.946Z,3.10
2018-12-26T00:33:07.623Z,3.20
2018-12-26T00:34:05.596Z,3.20
2018-12-26T00:35:07.229Z,3.10
2018-12-26T00:36:05.188Z,3.20
2018-12-26T00:37:07.766Z,3.10
2018-12-26T00:38:04.806Z,3.10
2018-12-26T00:39:05.036Z,3.10
2018-12-26T00:40:07.829Z,3.10
2018-12-26T00:41:04.917Z,3.10
2018-12-26T00:42:05.059Z,3.20
2018-12-26T00:43:05.314Z,3.10
2018-12-26T00:44:08.097Z,3.20
2018-12-26T00:45:07.708Z,3.20
2018-12-26T00:46:04.697Z,3.10
2018-12-26T00:47:04.821Z,3.20
2018-12-26T00:48:04.897Z,3.20
2018-12-26T00:49:04.979Z,3.20
2018-12-26T00:50:10.045Z,3.20
2018-12-26T00:51:07.560Z,3.20
2018-12-26T00:52:05.725Z,3.20
2018-12-26T00:53:07.361Z,3.20
2018-12-26T00:54:05.275Z,3.20
2018-12-26T00:55:07.867Z,3.20
2018-12-26T00:56:10.356Z,3.10
2018-12-26T00:57:04.741Z,3.20
2018-12-26T00:58:04.920Z,3.20
2018-12-26T00:59:07.594Z,3.10
2018-12-26T01:00:08.127Z,3.20
2018-12-26T01:01:05.082Z,3.10
2018-12-26T01:02:05.258Z,3.10
2018-12-26T01:03:07.868Z,3.10
2018-12-26T01:04:07.339Z,3.10
2018-12-26T01:05:07.871Z,3.10
2018-12-26T01:06:07.375Z,3.10
2018-12-26T01:07:05.298Z,3.10
2018-12-26T01:08:05.364Z,3.10
2018-12-26T01:09:08.033Z,3.10
2018-12-26T01:10:07.531Z,3.10
2018-12-26T01:11:08.028Z,3.10
2018-12-26T01:12:04.993Z,3.10
2018-12-26T01:13:07.616Z,3.20
2018-12-26T01:14:10.703Z,3.10
2018-12-26T01:15:07.182Z,3.10
2018-12-26T01:16:05.096Z,3.10
2018-12-26T01:17:07.693Z,3.10
2018-12-26T01:18:08.153Z,3.10
2018-12-26T01:19:05.051Z,3.10
2018-12-26T01:20:07.644Z,3.20
2018-12-26T01:21:08.058Z,3.10
2018-12-26T01:22:04.968Z,3.10
2018-12-26T01:23:05.071Z,3.10
2018-12-26T01:24:10.308Z,3.10
2018-12-26T01:25:05.269Z,3.10
2018-12-26T01:26:05.286Z,3.10
2018-12-26T01:27:05.544Z,3.10
2018-12-26T01:28:07.253Z,3.10
2018-12-26T01:29:05.147Z,3.10
2018-12-26T01:30:05.157Z,3.10
2018-12-26T01:31:05.392Z,3.10
2018-12-26T01:32:05.533Z,3.10
2018-12-26T01:33:05.637Z,3.10
2018-12-26T01:34:04.665Z,3.10
2018-12-26T01:35:07.242Z,3.10
2018-12-26T01:36:05.262Z,3.10
2018-12-26T01:37:10.478Z,3.10
2018-12-26T01:38:05.370Z,3.10
2018-12-26T01:39:07.958Z,3.10
2018-12-26T01:40:04.915Z,3.10
2018-12-26T01:41:07.527Z,3.10
2018-12-26T01:42:05.580Z,3.10
2018-12-26T01:43:04.719Z,3.10
2018-12-26T01:44:04.912Z,3.10
2018-12-26T01:45:07.655Z,3.10
2018-12-26T01:46:05.613Z,3.10
2018-12-26T01:47:07.198Z,3.10
2018-12-26T01:48:05.224Z,3.10
2018-12-26T01:49:05.369Z,3.00
2018-12-26T01:50:04.756Z,3.00
2018-12-26T01:51:05.514Z,3.00
2018-12-26T01:52:08.115Z,3.00
2018-12-26T01:53:05.070Z,3.00
2018-12-26T01:54:05.138Z,3.00
2018-12-26T01:55:05.158Z,3.00
2018-12-26T01:56:05.150Z,3.00
2018-12-26T01:57:05.300Z,3.00
2018-12-26T01:58:05.424Z,3.00
2018-12-26T01:59:06.970Z,3.00
2018-12-26T02:00:05.441Z,3.00
2018-12-26T02:01:10.640Z,3.00
2018-12-26T02:02:05.824Z,3.00
2018-12-26T02:03:04.868Z,3.00
2018-12-26T02:04:07.605Z,3.00
2018-12-26T02:05:05.521Z,3.00
2018-12-26T02:06:08.112Z,3.00
2018-12-26T02:07:07.823Z,3.00
2018-12-26T02:08:04.769Z,3.00
2018-12-26T02:09:07.440Z,3.00
2018-12-26T02:10:05.509Z,3.00
2018-12-26T02:11:07.201Z,3.00
2018-12-26T02:12:05.151Z,3.00
2018-12-26T02:13:07.793Z,3.00
2018-12-26T02:14:04.718Z,3.00
2018-12-26T02:15:04.834Z,3.00
2018-12-26T02:16:07.556Z,3.00
2018-12-26T02:17:05.688Z,3.00
2018-12-26T02:18:05.097Z,3.00
2018-12-26T02:19:05.308Z,3.00
2018-12-26T02:20:05.538Z,3.00
2018-12-26T02:21:05.608Z,3.00
2018-12-26T02:22:09.722Z,3.00
2018-12-26T02:23:04.811Z,3.00
2018-12-26T02:24:05.228Z,3.00
2018-12-26T02:25:05.407Z,3.00
2018-12-26T02:26:05.459Z,3.00
2018-12-26T02:27:05.604Z,3.00
2018-12-26T02:28:04.780Z,3.00
2018-12-26T02:29:04.843Z,3.00
2018-12-26T02:30:05.172Z,3.00
2018-12-26T02:31:10.379Z,3.00
2018-12-26T02:32:05.664Z,3.00
2018-12-26T02:33:09.842Z,3.00
2018-12-26T02:34:07.322Z,3.00
2018-12-26T02:35:05.438Z,3.00
2018-12-26T02:36:04.744Z,3.00
2018-12-26T02:37:04.856Z,3.00
2018-12-26T02:38:04.880Z,3.00
2018-12-26T02:39:07.562Z,3.00
2018-12-26T02:40:08.127Z,3.00
2018-12-26T02:41:07.721Z,3.00
2018-12-26T02:42:07.259Z,3.00
2018-12-26T02:43:05.232Z,3.00
2018-12-26T02:44:05.298Z,3.00
2018-12-26T02:45:05.555Z,3.00
2018-12-26T02:46:04.771Z,2.90
2018-12-26T02:47:04.946Z,2.90
2018-12-26T02:48:07.559Z,3.00
2018-12-26T02:49:05.458Z,3.00
2018-12-26T02:50:04.762Z,2.90
2018-12-26T02:51:05.006Z,2.90
2018-12-26T02:52:05.133Z,2.90
2018-12-26T02:53:07.818Z,2.90
2018-12-26T02:54:04.840Z,2.90
2018-12-26T02:55:07.461Z,2.90
2018-12-26T02:56:05.404Z,2.90
2018-12-26T02:57:05.444Z,2.90
2018-12-26T02:58:04.975Z,2.90
2018-12-26T02:59:07.613Z,2.90
2018-12-26T03:00:05.525Z,2.90
2018-12-26T03:01:05.712Z,2.90
2018-12-26T03:02:04.914Z,2.90
2018-12-26T03:03:07.616Z,2.90
2018-12-26T03:04:05.545Z,2.90
2018-12-26T03:05:05.635Z,2.90
2018-12-26T03:06:04.763Z,2.90
2018-12-26T03:07:07.560Z,2.90
2018-12-26T03:08:08.006Z,2.90
2018-12-26T03:09:07.377Z,2.90
2018-12-26T03:10:05.245Z,2.90
2018-12-26T03:11:05.273Z,2.90
2018-12-26T03:12:05.454Z,2.90
2018-12-26T03:13:08.189Z,2.90
2018-12-26T03:14:05.236Z,2.90
2018-12-26T03:15:07.873Z,2.90
2018-12-26T03:16:04.787Z,2.90
2018-12-26T03:17:04.973Z,2.90
2018-12-26T03:18:07.634Z,2.90
2018-12-26T03:19:05.583Z,2.90
2018-12-26T03:20:08.177Z,2.90
2018-12-26T03:21:05.111Z,2.90
2018-12-26T03:22:05.217Z,2.90
2018-12-26T03:23:07.881Z,2.90
2018-12-26T03:24:04.801Z,2.90
2018-12-26T03:25:04.971Z,2.90
2018-12-26T03:26:07.709Z,2.90
2018-12-26T03:27:08.143Z,2.80
2018-12-26T03:28:05.025Z,2.90
2018-12-26T03:29:05.051Z,2.90
2018-12-26T03:30:05.596Z,2.80
2018-12-26T03:31:04.741Z,2.80
2018-12-26T03:32:04.807Z,2.80
2018-12-26T03:33:05.010Z,2.80
2018-12-26T03:34:05.155Z,2.80
2018-12-26T03:35:05.367Z,2.80
2018-12-26T03:36:08.132Z,2.80
2018-12-26T03:37:05.058Z,2.80
2018-12-26T03:38:10.462Z,2.80
2018-12-26T03:39:05.521Z,2.80
2018-12-26T03:40:07.224Z,2.80
2018-12-26T03:41:05.171Z,2.80
2018-12-26T03:42:10.367Z,2.80
2018-12-26T03:43:07.947Z,2.80
2018-12-26T03:44:04.877Z,2.80
2018-12-26T03:45:07.604Z,2.70
2018-12-26T03:46:08.149Z,2.80
2018-12-26T03:47:05.122Z,2.70
2018-12-26T03:48:07.666Z,2.70
2018-12-26T03:49:05.938Z,2.70
2018-12-26T03:50:05.032Z,2.70
2018-12-26T03:51:05.099Z,2.70
2018-12-26T03:52:07.844Z,2.70
2018-12-26T03:53:04.877Z,2.70
2018-12-26T03:54:04.952Z,2.70
2018-12-26T03:55:07.588Z,2.70
2018-12-26T03:56:08.116Z,2.70
2018-12-26T03:57:06.132Z,2.70
2018-12-26T03:58:04.806Z,2.70
2018-12-26T03:59:07.393Z,2.70
2018-12-26T04:00:05.300Z,2.70
2018-12-26T04:01:05.431Z,2.70
2018-12-26T04:02:05.475Z,2.70
2018-12-26T04:03:05.639Z,2.70
2018-12-26T04:04:04.751Z,2.70
2018-12-26T04:05:07.564Z,2.70
2018-12-26T04:06:08.117Z,2.70
2018-12-26T04:07:05.083Z,2.70
2018-12-26T04:08:07.728Z,2.70
2018-12-26T04:09:05.673Z,2.70
2018-12-26T04:10:04.741Z,2.70
2018-12-26T04:11:04.860Z,2.70
2018-12-26T04:12:04.913Z,2.70
2018-12-26T04:13:05.029Z,2.60
2018-12-26T04:14:07.694Z,2.70
2018-12-26T04:15:05.593Z,2.70
2018-12-26T04:16:05.630Z,2.70
2018-12-26T04:17:04.872Z,2.70
2018-12-26T04:18:07.526Z,2.60
2018-12-26T04:19:05.502Z,2.60
2018-12-26T04:20:05.513Z,2.70
2018-12-26T04:21:08.133Z,2.60
2018-12-26T04:22:07.613Z,2.60
2018-12-26T04:23:05.551Z,2.70
2018-12-26T04:24:05.616Z,2.70
2018-12-26T04:25:04.695Z,2.60
2018-12-26T04:26:04.736Z,2.60
2018-12-26T04:27:15.398Z,2.60
2018-12-26T04:28:05.627Z,2.60
2018-12-26T04:29:04.845Z,2.60
2018-12-26T04:30:05.179Z,2.60
2018-12-26T04:31:05.420Z,2.60
2018-12-26T04:32:05.515Z,2.60
2018-12-26T04:33:10.651Z,2.60
2018-12-26T04:34:05.687Z,2.60
2018-12-26T04:35:07.804Z,2.60
2018-12-26T04:36:07.393Z,2.60
2018-12-26T04:37:05.330Z,2.60
2018-12-26T04:38:05.378Z,2.60
2018-12-26T04:39:05.544Z,2.60
2018-12-26T04:40:10.733Z,2.60
2018-12-26T04:41:08.127Z,2.60
2018-12-26T04:42:07.570Z,2.60
2018-12-26T04:43:05.609Z,2.60
2018-12-26T04:44:04.751Z,2.60
2018-12-26T04:45:04.891Z,2.60
2018-12-26T04:46:05.048Z,2.60
2018-12-26T04:47:10.216Z,2.60
2018-12-26T04:48:07.673Z,2.60
2018-12-26T04:49:05.632Z,2.50
2018-12-26T04:50:04.919Z,2.60
2018-12-26T04:51:07.487Z,2.50
2018-12-26T04:52:05.378Z,2.60
2018-12-26T04:53:07.994Z,2.50
2018-12-26T04:54:04.914Z,2.50
2018-12-26T04:55:10.169Z,2.50
2018-12-26T04:56:05.084Z,2.50
2018-12-26T04:57:05.194Z,2.50
2018-12-26T04:58:05.228Z,2.50
2018-12-26T04:59:07.826Z,2.50
2018-12-26T05:00:04.734Z,2.50
2018-12-26T05:01:04.888Z,2.50
2018-12-26T05:02:04.981Z,2.50
2018-12-26T05:03:05.049Z,2.50
2018-12-26T05:04:05.152Z,2.50
2018-12-26T05:05:07.765Z,2.50
2018-12-26T05:06:07.291Z,2.50
2018-12-26T05:07:07.679Z,2.50
2018-12-26T05:08:05.537Z,2.40
2018-12-26T05:09:08.199Z,2.50
2018-12-26T05:10:05.125Z,2.50
2018-12-26T05:11:05.259Z,2.50
2018-12-26T05:12:05.749Z,2.40
2018-12-26T05:13:07.493Z,2.40
2018-12-26T05:14:05.505Z,2.40
2018-12-26T05:15:05.601Z,2.50
2018-12-26T05:16:05.990Z,2.50
2018-12-26T05:17:05.066Z,2.50
2018-12-26T05:18:05.127Z,2.50
2018-12-26T05:19:07.750Z,2.50
2018-12-26T05:20:05.691Z,2.50
2018-12-26T05:21:07.542Z,2.50
2018-12-26T05:22:05.445Z,2.50
2018-12-26T05:23:05.586Z,2.50
2018-12-26T05:24:05.706Z,2.50
2018-12-26T05:25:05.147Z,2.40
2018-12-26T05:26:10.459Z,2.40
2018-12-26T05:27:07.910Z,2.40
2018-12-26T05:28:04.907Z,2.40
2018-12-26T05:29:04.900Z,2.40
2018-12-26T05:30:05.183Z,2.50
2018-12-26T05:31:07.439Z,2.40
2018-12-26T05:32:08.019Z,2.40
2018-12-26T05:33:05.072Z,2.40
2018-12-26T05:34:05.205Z,2.50
2018-12-26T05:35:07.827Z,2.40
2018-12-26T05:36:07.232Z,2.40
2018-12-26T05:37:07.584Z,2.40
2018-12-26T05:38:08.058Z,2.40
2018-12-26T05:39:08.546Z,2.40
2018-12-26T05:40:08.196Z,2.40
2018-12-26T05:41:05.287Z,2.40
2018-12-26T05:42:05.421Z,2.40
2018-12-26T05:43:05.638Z,2.40
2018-12-26T05:44:04.639Z,2.40
2018-12-26T05:45:04.722Z,2.40
2018-12-26T05:46:04.810Z,2.40
2018-12-26T05:47:04.988Z,2.40
2018-12-26T05:48:05.053Z,2.40
2018-12-26T05:49:05.280Z,2.40
2018-12-26T05:50:05.491Z,2.40
2018-12-26T05:51:08.171Z,2.40
2018-12-26T05:52:05.171Z,2.30
2018-12-26T05:53:07.891Z,2.40
2018-12-26T05:54:04.872Z,2.30
2018-12-26T05:55:05.007Z,2.40
2018-12-26T05:56:05.054Z,2.30
2018-12-26T05:57:05.162Z,2.30
2018-12-26T05:58:05.216Z,2.40
2018-12-26T05:59:05.352Z,2.40
2018-12-26T06:00:05.408Z,2.30
2018-12-26T06:01:08.086Z,2.40
2018-12-26T06:02:05.081Z,2.30
2018-12-26T06:03:07.667Z,2.30
2018-12-26T06:04:05.729Z,2.40
2018-12-26T06:05:04.811Z,2.30
2018-12-26T06:06:07.401Z,2.30
2018-12-26T06:07:05.320Z,2.30
2018-12-26T06:08:08.157Z,2.30
2018-12-26T06:09:05.070Z,2.30
2018-12-26T06:10:05.129Z,2.30
2018-12-26T06:11:10.301Z,2.30
2018-12-26T06:12:05.181Z,2.30
2018-12-26T06:13:07.961Z,2.30
2018-12-26T06:14:07.466Z,2.30
2018-12-26T06:15:07.920Z,2.30
2018-12-26T06:16:04.833Z,2.30
2018-12-26T06:17:05.117Z,2.30
2018-12-26T06:18:05.406Z,2.30
2018-12-26T06:19:08.021Z,2.30
2018-12-26T06:20:04.911Z,2.30
2018-12-26T06:21:07.573Z,2.30
2018-12-26T06:22:05.781Z,2.30
2018-12-26T06:23:07.428Z,2.30
2018-12-26T06:24:05.490Z,2.30
2018-12-26T06:25:05.648Z,2.30
2018-12-26T06:26:07.411Z,2.30
2018-12-26T06:27:07.959Z,2.30
2018-12-26T06:28:07.466Z,2.30
2018-12-26T06:29:05.340Z,2.20
2018-12-26T06:30:04.874Z,2.30
2018-12-26T06:31:04.938Z,2.30
2018-12-26T06:32:07.483Z,2.30
2018-12-26T06:33:07.878Z,2.30
2018-12-26T06:34:07.409Z,2.30
2018-12-26T06:35:05.282Z,2.20
2018-12-26T06:36:07.968Z,2.30
2018-12-26T06:37:04.864Z,2.30
2018-12-26T06:38:04.831Z,2.30
2018-12-26T06:39:04.992Z,2.30
2018-12-26T06:40:07.690Z,2.30
2018-12-26T06:41:08.250Z,2.30
2018-12-26T06:42:07.764Z,2.30
2018-12-26T06:43:05.580Z,2.30
2018-12-26T06:44:05.654Z,2.30
2018-12-26T06:45:04.662Z,2.30
2018-12-26T06:46:04.642Z,2.30
2018-12-26T06:47:04.707Z,2.30
2018-12-26T06:48:04.705Z,2.30
2018-12-26T06:49:07.273Z,2.30
2018-12-26T06:50:05.156Z,2.30
2018-12-26T06:51:07.907Z,2.30
2018-12-26T06:52:07.388Z,2.30
2018-12-26T06:53:05.419Z,2.30
2018-12-26T06:54:05.452Z,2.30
2018-12-26T06:55:05.531Z,2.20
2018-12-26T06:56:10.691Z,2.30
2018-12-26T06:57:07.784Z,2.20
2018-12-26T06:58:07.272Z,2.20
2018-12-26T06:59:07.712Z,2.20
2018-12-26T07:00:08.319Z,2.20
2018-12-26T07:01:05.319Z,2.20
2018-12-26T07:02:05.440Z,2.30
2018-12-26T07:03:08.065Z,2.30
2018-12-26T07:04:07.564Z,2.20
2018-12-26T07:05:07.979Z,2.20
2018-12-26T07:06:04.951Z,2.20
2018-12-26T07:07:07.591Z,2.20
2018-12-26T07:08:05.648Z,2.20
2018-12-26T07:09:07.512Z,2.20
2018-12-26T07:10:08.077Z,2.20
2018-12-26T07:11:05.037Z,2.20
2018-12-26T07:12:05.064Z,2.20
2018-12-26T07:13:05.281Z,2.20
2018-12-26T07:14:05.409Z,2.20
2018-12-26T07:15:05.547Z,2.20
2018-12-26T07:16:07.342Z,2.20
2018-12-26T07:17:07.786Z,2.20
2018-12-26T07:18:07.242Z,2.20
2018-12-26T07:19:07.775Z,2.20
2018-12-26T07:20:04.785Z,2.20
2018-12-26T07:21:07.422Z,2.20
2018-12-26T07:22:05.507Z,2.20
2018-12-26T07:23:05.534Z,2.20
2018-12-26T07:24:05.636Z,2.20
2018-12-26T07:25:04.718Z,2.20
2018-12-26T07:26:04.882Z,2.20
2018-12-26T07:27:05.002Z,2.20
2018-12-26T07:28:09.071Z,2.20
2018-12-26T07:29:08.089Z,2.20
2018-12-26T07:30:04.981Z,2.20
2018-12-26T07:31:07.557Z,2.20
2018-12-26T07:32:05.450Z,2.20
2018-12-26T07:33:05.571Z,2.20
2018-12-26T07:34:05.726Z,2.20
2018-12-26T07:35:07.270Z,2.10
2018-12-26T07:36:05.305Z,2.10
2018-12-26T07:37:05.426Z,2.10
2018-12-26T07:38:05.406Z,2.20
2018-12-26T07:39:08.006Z,2.20
2018-12-26T07:40:04.997Z,2.20
2018-12-26T07:41:05.434Z,2.20
2018-12-26T07:42:05.554Z,2.10
2018-12-26T07:43:05.655Z,2.20
2018-12-26T07:44:04.726Z,2.10
2018-12-26T07:45:07.407Z,2.20
2018-12-26T07:46:07.867Z,2.10
2018-12-26T07:47:07.352Z,2.10
2018-12-26T07:48:07.785Z,2.10
2018-12-26T07:49:05.660Z,2.10
2018-12-26T07:50:04.953Z,2.10
2018-12-26T07:51:05.150Z,2.10
2018-12-26T07:52:07.949Z,2.10
2018-12-26T07:53:04.909Z,2.10
2018-12-26T07:54:07.458Z,2.10
2018-12-26T07:55:05.460Z,2.10
2018-12-26T07:56:05.571Z,2.10
2018-12-26T07:57:05.733Z,2.10
2018-12-26T07:58:07.382Z,2.10
2018-12-26T07:59:07.908Z,2.10
2018-12-26T08:00:04.862Z,2.10
2018-12-26T08:01:07.581Z,2.10
2018-12-26T08:02:05.499Z,2.10
2018-12-26T08:03:05.666Z,2.10
2018-12-26T08:04:04.844Z,2.10
2018-12-26T08:05:07.459Z,2.10
2018-12-26T08:06:05.358Z,2.10
2018-12-26T08:07:07.955Z,2.10
2018-12-26T08:08:04.938Z,2.10
2018-12-26T08:09:05.029Z,2.10
2018-12-26T08:10:05.071Z,2.10
2018-12-26T08:11:07.804Z,2.10
2018-12-26T08:12:04.914Z,2.10
2018-12-26T08:13:04.986Z,2.10
2018-12-26T08:14:05.013Z,2.10
2018-12-26T08:15:10.413Z,2.10
2018-12-26T08:16:05.062Z,2.20
2018-12-26T08:17:07.789Z,2.10
2018-12-26T08:18:04.674Z,2.10
2018-12-26T08:19:04.941Z,2.10
2018-12-26T08:20:05.138Z,2.20
2018-12-26T08:21:05.238Z,2.10
2018-12-26T08:22:07.890Z,2.20
2018-12-26T08:23:07.418Z,2.10
2018-12-26T08:24:05.454Z,2.20
2018-12-26T08:25:05.588Z,2.10
2018-12-26T08:26:04.684Z,2.10
2018-12-26T08:27:04.799Z,2.20
2018-12-26T08:28:04.868Z,2.20
2018-12-26T08:29:07.579Z,2.20
2018-12-26T08:30:07.990Z,2.20
2018-12-26T08:31:07.585Z,2.20
2018-12-26T08:32:05.623Z,2.10
2018-12-26T08:33:07.183Z,2.20
2018-12-26T08:34:05.149Z,2.20
2018-12-26T08:35:05.291Z,2.20
2018-12-26T08:36:05.417Z,2.20
2018-12-26T08:37:05.672Z,2.20
2018-12-26T08:38:07.355Z,2.20
2018-12-26T08:39:05.247Z,2.20
2018-12-26T08:40:07.838Z,2.20
2018-12-26T08:41:07.264Z,2.20
2018-12-26T08:42:05.379Z,2.20
2018-12-26T08:43:05.551Z,2.20
2018-12-26T08:44:05.596Z,2.20
2018-12-26T08:45:05.716Z,2.20
2018-12-26T08:46:07.299Z,2.20
2018-12-26T08:47:05.293Z,2.20
2018-12-26T08:48:07.982Z,2.20
2018-12-26T08:49:07.399Z,2.20
2018-12-26T08:50:05.358Z,2.20
2018-12-26T08:51:05.483Z,2.30
2018-12-26T08:52:05.569Z,2.30
2018-12-26T08:53:05.787Z,2.30
2018-12-26T08:54:07.550Z,2.30
2018-12-26T08:55:05.644Z,2.20
2018-12-26T08:56:04.813Z,2.30
2018-12-26T08:57:04.828Z,2.30
2018-12-26T08:58:07.497Z,2.30
2018-12-26T08:59:05.500Z,2.30
2018-12-26T09:00:05.682Z,2.30
2018-12-26T09:01:04.752Z,2.30
2018-12-26T09:02:07.328Z,2.30
2018-12-26T09:03:05.282Z,2.30
2018-12-26T09:04:05.292Z,2.30
2018-12-26T09:05:07.896Z,2.30
2018-12-26T09:06:04.924Z,2.30
2018-12-26T09:07:05.058Z,2.30
2018-12-26T09:08:05.073Z,2.40
2018-12-26T09:09:05.187Z,2.40
2018-12-26T09:10:05.193Z,2.30
2018-12-26T09:11:05.251Z,2.30
2018-12-26T09:12:07.903Z,2.40
2018-12-26T09:13:07.431Z,2.40
2018-12-26T09:14:05.342Z,2.40
2018-12-26T09:15:05.449Z,2.40
2018-12-26T09:16:05.483Z,2.40
2018-12-26T09:17:10.672Z,2.40
2018-12-26T09:18:05.559Z,2.50
2018-12-26T09:19:07.258Z,2.50
2018-12-26T09:20:10.212Z,2.50
2018-12-26T09:21:05.085Z,2.50
2018-12-26T09:22:05.078Z,2.50
2018-12-26T09:23:09.416Z,2.50
2018-12-26T09:24:05.446Z,2.50
2018-12-26T09:25:05.608Z,2.50
2018-12-26T09:26:07.237Z,2.50
2018-12-26T09:27:05.067Z,2.50
2018-12-26T09:28:05.208Z,2.60
2018-12-26T09:29:07.781Z,2.50
2018-12-26T09:30:04.696Z,2.60
2018-12-26T09:31:04.745Z,2.60
2018-12-26T09:32:04.798Z,2.60
2018-12-26T09:33:04.982Z,2.60
2018-12-26T09:34:05.087Z,2.60
2018-12-26T09:35:07.804Z,2.60
2018-12-26T09:36:07.308Z,2.60
2018-12-26T09:37:07.698Z,2.60
2018-12-26T09:38:05.692Z,2.60
2018-12-26T09:39:04.786Z,2.60
2018-12-26T09:40:04.813Z,2.70
2018-12-26T09:41:07.463Z,2.70
2018-12-26T09:42:05.445Z,2.70
2018-12-26T09:43:05.503Z,2.70
2018-12-26T09:44:05.537Z,2.70
2018-12-26T09:45:05.747Z,2.70
2018-12-26T09:46:07.461Z,2.70
2018-12-26T09:47:05.330Z,2.70
2018-12-26T09:48:05.421Z,2.80
2018-12-26T09:49:05.605Z,2.80
2018-12-26T09:50:04.641Z,2.80
2018-12-26T09:51:04.743Z,2.80
2018-12-26T09:52:04.936Z,2.80
2018-12-26T09:53:05.021Z,2.80
2018-12-26T09:54:05.045Z,2.90
2018-12-26T09:55:07.622Z,2.90
2018-12-26T09:56:08.145Z,2.90
2018-12-26T09:57:07.551Z,2.90
2018-12-26T09:58:05.452Z,2.90
2018-12-26T09:59:05.629Z,2.90
2018-12-26T10:00:07.232Z,3.00
2018-12-26T10:01:05.227Z,2.90
2018-12-26T10:02:07.939Z,3.00
2018-12-26T10:03:04.879Z,3.00
2018-12-26T10:04:05.022Z,3.00
2018-12-26T10:05:08.115Z,3.00
2018-12-26T10:06:05.129Z,3.00
2018-12-26T10:07:05.364Z,3.00
2018-12-26T10:08:08.053Z,3.00
2018-12-26T10:09:07.526Z,3.10
2018-12-26T10:10:07.968Z,3.10
2018-12-26T10:11:09.882Z,3.00
2018-12-26T10:12:04.842Z,3.10
2018-12-26T10:13:04.904Z,3.00
2018-12-26T10:14:04.962Z,3.10
2018-12-26T10:15:05.175Z,3.10
2018-12-26T10:16:08.052Z,3.10
2018-12-26T10:17:07.473Z,3.10
2018-12-26T10:18:05.348Z,3.00
2018-12-26T10:19:07.927Z,3.00
2018-12-26T10:20:04.898Z,3.10
2018-12-26T10:21:07.716Z,3.10
2018-12-26T10:22:07.375Z,3.10
2018-12-26T10:23:05.443Z,3.10
2018-12-26T10:24:08.161Z,3.10
2018-12-26T10:25:05.123Z,3.10
2018-12-26T10:26:05.263Z,3.10
2018-12-26T10:27:05.400Z,3.10
2018-12-26T10:28:08.056Z,3.20
2018-12-26T10:29:05.031Z,3.20
2018-12-26T10:30:07.529Z,3.20
2018-12-26T10:31:05.436Z,3.10
2018-12-26T10:32:05.467Z,3.20
2018-12-26T10:33:08.205Z,3.20
2018-12-26T10:34:07.725Z,3.30
2018-12-26T10:35:04.951Z,3.30
2018-12-26T10:36:05.058Z,3.30
2018-12-26T10:37:05.123Z,3.20
2018-12-26T10:38:05.170Z,3.30
2018-12-26T10:39:08.257Z,3.30
2018-12-26T10:40:05.267Z,3.30
2018-12-26T10:41:05.768Z,3.30
2018-12-26T10:42:07.274Z,3.30
2018-12-26T10:43:05.288Z,3.30
2018-12-26T10:44:05.463Z,3.30
2018-12-26T10:45:05.667Z,3.30
2018-12-26T10:46:07.296Z,3.30
2018-12-26T10:47:05.142Z,3.30
2018-12-26T10:48:05.172Z,3.30
2018-12-26T10:49:07.829Z,3.40
2018-12-26T10:50:07.571Z,3.40
2018-12-26T10:51:07.941Z,3.40
2018-12-26T10:52:04.958Z,3.40
2018-12-26T10:53:07.571Z,3.40
2018-12-26T10:54:05.646Z,3.40
2018-12-26T10:55:04.732Z,3.40
2018-12-26T10:56:04.817Z,3.40
2018-12-26T10:57:04.886Z,3.40
2018-12-26T10:58:04.986Z,3.40
2018-12-26T10:59:09.882Z,3.40
2018-12-26T11:00:05.481Z,3.40
2018-12-26T11:01:10.619Z,3.40
2018-12-26T11:02:08.178Z,3.40
2018-12-26T11:03:07.562Z,3.40
2018-12-26T11:04:08.059Z,3.40
2018-12-26T11:05:07.488Z,3.40
2018-12-26T11:06:05.415Z,3.40
2018-12-26T11:07:08.114Z,3.40
2018-12-26T11:08:10.024Z,3.40
2018-12-26T11:09:07.512Z,3.40
2018-12-26T11:10:05.620Z,3.40
2018-12-26T11:11:05.219Z,3.40
2018-12-26T11:12:05.401Z,3.40
2018-12-26T11:13:08.103Z,3.40
2018-12-26T11:14:05.035Z,3.40
2018-12-26T11:15:05.094Z,3.40
2018-12-26T11:16:07.796Z,3.40
2018-12-26T11:17:04.778Z,3.40
2018-12-26T11:18:04.777Z,3.40
2018-12-26T11:19:04.875Z,3.40
2018-12-26T11:20:07.569Z,3.40
2018-12-26T11:21:04.768Z,3.40
2018-12-26T11:22:04.796Z,3.40
2018-12-26T11:23:07.467Z,3.40
2018-12-26T11:24:05.392Z,3.40
2018-12-26T11:25:08.069Z,3.40
2018-12-26T11:26:05.157Z,3.40
2018-12-26T11:27:07.769Z,3.40
2018-12-26T11:28:07.267Z,3.50
2018-12-26T11:29:05.189Z,3.50
2018-12-26T11:30:04.679Z,3.50
2018-12-26T11:31:04.783Z,3.50
2018-12-26T11:32:07.440Z,3.50
2018-12-26T11:33:05.433Z,3.50
2018-12-26T11:34:05.512Z,3.50
2018-12-26T11:35:05.741Z,3.50
2018-12-26T11:36:07.406Z,3.50
2018-12-26T11:37:05.523Z,3.50
2018-12-26T11:38:05.737Z,3.50
2018-12-26T11:39:04.863Z,3.50
2018-12-26T11:40:07.439Z,3.50
2018-12-26T11:41:10.441Z,3.50
2018-12-26T11:42:05.402Z,3.50
2018-12-26T11:43:05.530Z,3.50
2018-12-26T11:44:05.543Z,3.50
2018-12-26T11:45:05.602Z,3.60
2018-12-26T11:46:07.401Z,3.60
2018-12-26T11:47:10.544Z,3.60
2018-12-26T11:48:05.581Z,3.60
2018-12-26T11:49:07.359Z,3.60
2018-12-26T11:50:07.856Z,3.60
2018-12-26T11:51:07.498Z,3.60
2018-12-26T11:52:07.102Z,3.60
2018-12-26T11:53:09.878Z,3.60
2018-12-26T11:54:04.884Z,3.60
2018-12-26T11:55:05.088Z,3.60
2018-12-26T11:56:05.312Z,3.60
2018-12-26T11:57:08.212Z,3.60
2018-12-26T11:58:05.376Z,3.60
2018-12-26T11:59:05.783Z,3.60
2018-12-26T12:00:05.034Z,3.60
2018-12-26T12:01:05.204Z,3.70
2018-12-26T12:02:20.354Z,3.70
2018-12-26T12:03:04.746Z,3.70
2018-12-26T12:04:07.673Z,3.70
2018-12-26T12:05:05.667Z,3.70
2018-12-26T12:06:04.710Z,3.70
2018-12-26T12:07:10.008Z,3.70
2018-12-26T12:08:05.254Z,3.70
2018-12-26T12:09:05.465Z,3.70
2018-12-26T12:10:05.767Z,3.80
2018-12-26T12:11:04.844Z,3.70
2018-12-26T12:12:05.028Z,3.80
2018-12-26T12:13:07.622Z,3.80
2018-12-26T12:14:08.194Z,3.80
2018-12-26T12:15:05.119Z,3.80
2018-12-26T12:16:05.156Z,3.80
2018-12-26T12:17:05.284Z,3.80
2018-12-26T12:18:07.954Z,3.80
2018-12-26T12:19:05.391Z,3.70
2018-12-26T12:20:05.598Z,3.80
2018-12-26T12:21:04.746Z,3.80
2018-12-26T12:22:04.957Z,3.80
2018-12-26T12:23:05.141Z,3.80
2018-12-26T12:24:08.020Z,3.80
2018-12-26T12:25:07.550Z,3.80
2018-12-26T12:26:05.490Z,3.80
2018-12-26T12:27:05.622Z,3.80
2018-12-26T12:28:04.678Z,3.80
2018-12-26T12:29:04.753Z,3.80
2018-12-26T12:30:05.271Z,3.80
2018-12-26T12:31:05.385Z,3.90
2018-12-26T12:32:05.433Z,3.80
2018-12-26T12:33:05.636Z,3.90
2018-12-26T12:34:04.829Z,3.80
2018-12-26T12:35:04.938Z,3.80
2018-12-26T12:36:05.008Z,3.80
2018-12-26T12:37:05.100Z,3.80
2018-12-26T12:38:07.702Z,3.90
2018-12-26T12:39:05.666Z,3.90
2018-12-26T12:40:07.342Z,3.90
2018-12-26T12:41:05.304Z,3.90
2018-12-26T12:42:05.378Z,3.90
2018-12-26T12:43:05.446Z,3.90
2018-12-26T12:44:05.478Z,3.90
2018-12-26T12:45:05.682Z,3.90
2018-12-26T12:46:04.840Z,3.90
2018-12-26T12:47:04.972Z,3.90
2018-12-26T12:48:07.674Z,3.90
2018-12-26T12:49:05.631Z,3.90
2018-12-26T12:50:07.710Z,3.90
2018-12-26T12:51:04.762Z,3.90
2018-12-26T12:52:07.594Z,3.90
2018-12-26T12:53:05.557Z,3.90
2018-12-26T12:54:04.719Z,3.90
2018-12-26T12:55:04.841Z,3.90
2018-12-26T12:56:11.659Z,3.90
2018-12-26T12:57:07.756Z,3.90
2018-12-26T12:58:04.681Z,3.90
2018-12-26T12:59:04.825Z,3.90
2018-12-26T13:00:07.553Z,3.90
2018-12-26T13:01:05.611Z,3.90
2018-12-26T13:02:05.439Z,3.90
2018-12-26T13:03:05.506Z,3.90
2018-12-26T13:04:05.596Z,3.90
2018-12-26T13:05:08.256Z,3.90
2018-12-26T13:06:07.703Z,3.90
2018-12-26T13:07:08.158Z,3.90
2018-12-26T13:08:05.122Z,3.90
2018-12-26T13:09:05.233Z,3.90
2018-12-26T13:10:05.282Z,3.90
2018-12-26T13:11:10.409Z,3.90
2018-12-26T13:12:05.398Z,3.90
2018-12-26T13:13:05.454Z,3.90
2018-12-26T13:14:05.560Z,4.00
2018-12-26T13:15:04.652Z,3.90
2018-12-26T13:16:04.840Z,3.90
2018-12-26T13:17:05.000Z,4.00
2018-12-26T13:18:05.393Z,4.00